Time;durP1;ratioP1;P1;durP2;ratioP2;P2;SDS_P1;SDS_P2;PMS_P1;PMS_P2;Temp;Humidity;BMP_temperature;BMP_pressure;BME280_temperature;BME280_humidity;BME280_pressure;Samples;Min_cycle;Max_cycle;Signal;HPM_P1;HPM_P2
2021/04/05 04:25:28;;;;;;;;;;;;;;;7.96;76.66;101304.56;1702435;84;20193;-71
2021/04/05 04:28:00;;;;;;;;;;;;;;;5.95;72.20;101214.95;1675958;84;20263;-72
2021/04/05 04:30:32;;;;;;;;;;;;;;;6.00;72.17;101225.31;1698195;84;20569;-73
2021/04/05 04:33:06;;;;;;;;;;;;;;;6.01;72.00;101232.52;1648246;87;20194;-72
2021/04/05 04:35:39;;;;;;;;;;;;;;;6.03;71.92;101230.37;1628795;86;20273;-71
2021/04/05 04:38:11;;;;;;;;;;;;;;;6.07;71.83;101224.75;1667485;86;20265;-70
2021/04/05 04:40:42;;;;;;;;;;;;;;;6.10;71.92;101219.64;1669959;86;20222;-72
2021/04/05 04:43:14;;;;;;;;;;;;;;;6.20;71.92;101221.94;1657579;86;20295;-71
2021/04/05 04:45:46;;;;;;;;;;;;;;;6.30;71.80;101225.08;1707106;84;20196;-70
2021/04/05 04:48:18;;;;;;;;;;;;;;;6.43;71.61;101223.63;1708893;84;20312;-70
2021/04/05 04:50:49;;;;;;;;;;;;;;;6.51;71.13;101226.11;1688017;85;20190;-71
2021/04/05 04:53:21;;;;;;;;;;;;;;;6.61;70.88;101223.21;1726975;83;20184;-74
2021/04/05 04:55:52;;;;;;;;;;;;;;;6.72;70.54;101222.48;1726953;83;20406;-72
2021/04/05 04:58:24;;;;;;;;;;;;;;;6.91;70.39;101217.34;1714794;83;20317;-69
2021/04/05 05:00:57;;;;;;;;;;;;;;;7.26;70.36;101207.50;1695975;84;20333;-71
2021/04/05 05:03:30;;;;;;;;;;;;;;;7.72;70.02;101210.66;1680304;85;20202;-69
2021/04/05 05:06:02;;;;;;;;;;;;;;;8.16;68.39;101202.89;1687998;83;20191;-69
2021/04/05 05:08:34;;;;;;;;;;;;;;;8.56;67.28;101201.29;1680838;84;20210;-71
2021/04/05 05:11:06;;;;;;;;;;;;;;;8.81;65.67;101201.14;1678770;84;20325;-67
2021/04/05 05:13:38;;;;;;;;;;;;;;;8.95;64.93;101204.00;1670521;84;20258;-67
2021/04/05 05:16:11;;;;;;;;;;;;;;;8.97;64.19;101205.45;1709816;83;20257;-69
2021/04/05 05:18:44;;;;;;;;;;;;;;;8.87;63.97;101206.56;1679500;85;20663;-68
2021/04/05 05:21:21;;;;;;;;;;;;;;;8.78;63.51;101203.84;1710855;83;20258;-71
2021/04/05 05:23:54;;;;;;;;;;;;;;;8.87;63.58;101199.64;1686548;83;20245;-68
2021/04/05 05:26:26;;;;;;;;;;;;;;;9.02;63.14;101196.42;1678795;84;20264;-67
2021/04/05 05:29:00;;;;;;;;;;;;;;;9.20;62.82;101196.33;1679517;84;20332;-68
2021/04/05 05:31:34;;;;;;;;;;;;;;;9.47;62.65;101201.17;1680064;84;20276;-69
2021/04/05 05:34:14;;;;;;;;;;;;;;;9.83;61.68;101198.66;1673364;84;20856;-69
2021/04/05 05:36:51;;;;;;;;;;;;;;;10.27;60.28;101194.68;1673973;84;20723;-71
2021/04/05 05:39:26;;;;;;;;;;;;;;;10.74;59.75;101194.80;1673082;85;20374;-69
2021/04/05 05:42:18;;;;;;;;;;;;;;;11.14;58.08;101192.72;1666020;84;20263;-69
2021/04/05 05:44:58;;;;;;;;;;;;;;;11.49;58.14;101194.70;1682247;84;20291;-68
2021/04/05 05:47:33;;;;;;;;;;;;;;;11.88;56.72;101186.72;1663845;85;20211;-69
2021/04/05 05:50:20;;;;;;;;;;;;;;;12.24;56.00;101184.66;1678219;84;20286;-69
2021/04/05 05:53:08;;;;;;;;;;;;;;;12.57;54.31;101187.31;1657019;85;20222;-69
2021/04/05 05:56:14;;;;;;;;;;;;;;;12.85;53.13;101181.47;1676016;85;20254;-69
2021/04/05 05:59:26;;;;;;;;;;;;;;;;;;;;;
2021/04/05 06:02:51;;;;;;;;;;;;;;;13.39;51.86;101180.31;1612676;85;20347;-70
2021/04/05 06:05:58;;;;;;;;;;;;;;;13.74;51.03;101181.97;1677779;85;20254;-69
2021/04/05 06:08:38;;;;;;;;;;;;;;;13.93;49.96;101188.78;1650483;85;20536;-70
2021/04/05 06:11:26;;;;;;;;;;;;;;;14.04;49.61;101185.48;1678860;84;20551;-72
2021/04/05 06:14:19;;;;;;;;;;;;;;;14.07;49.59;101178.84;1678223;83;20793;-68
2021/04/05 06:17:09;;;;;;;;;;;;;;;14.21;49.31;101189.81;1681354;84;20344;-68
2021/04/05 06:19:56;;;;;;;;;;;;;;;14.43;49.54;101185.44;1672655;85;20587;-70
2021/04/05 06:22:46;;;;;;;;;;;;;;;14.60;49.18;101188.28;1674119;84;20248;-69
2021/04/05 06:25:54;;;;;;;;;;;;;;;14.71;48.58;101187.20;1672816;84;20228;-69
2021/04/05 06:29:09;;;;;;;;;;;;;;;14.84;48.97;101187.25;1656232;86;20314;-70
2021/04/05 06:31:58;;;;;;;;;;;;;;;15.02;48.31;101187.55;1686960;84;20260;-69
2021/04/05 06:34:46;;;;;;;;;;;;;;;15.29;47.56;101187.29;1651623;86;20556;-71
2021/04/05 06:37:29;;;;;;;;;;;;;;;15.31;46.65;101188.69;1691839;84;20298;-68
2021/04/05 06:40:10;;;;;;;;;;;;;;;15.32;46.69;101192.31;1650798;86;20259;-68
2021/04/05 06:42:54;;;;;;;;;;;;;;;15.28;46.54;101194.83;1658258;86;20259;-69
2021/04/05 06:46:01;;;;;;;;;;;;;;;15.24;46.64;101192.33;1658003;86;20200;-67
2021/04/05 06:48:51;;;;;;;;;;;;;;;15.30;47.56;101200.16;1657147;86;20283;-69
2021/04/05 06:52:01;;;;;;;;;;;;;;;15.28;46.47;101202.41;1657183;86;20259;-70
2021/04/05 06:54:41;;;;;;;;;;;;;;;15.20;46.85;101198.73;1685212;84;20659;-70
2021/04/05 06:57:16;;;;;;;;;;;;;;;15.24;46.11;101195.67;1688967;84;20243;-71
2021/04/05 07:00:11;;;;;;;;;;;;;;;15.17;46.30;101196.52;1673326;84;20186;-71
2021/04/05 07:03:06;;;;;;;;;;;;;;;15.22;46.92;101187.55;1699805;83;20243;-72
2021/04/05 07:05:55;;;;;;;;;;;;;;;15.26;46.06;101194.28;1647269;86;20257;-69
2021/04/05 07:08:56;;;;;;;;;;;;;;;15.20;46.64;101196.80;1655511;86;20301;-69
2021/04/05 07:11:37;;;;;;;;;;;;;;;15.13;45.67;101191.19;1649431;86;20238;-69
2021/04/05 07:14:49;;;;;;;;;;;;;;;15.02;45.48;101193.14;1655554;86;20233;-71
2021/04/05 07:17:46;;;;;;;;;;;;;;;14.92;46.18;101187.52;1685146;83;20228;-69
2021/04/05 07:20:38;;;;;;;;;;;;;;;14.83;47.12;101185.00;1652715;86;20319;-70
2021/04/05 07:23:52;;;;;;;;;;;;;;;14.71;45.65;101185.80;1690770;84;20193;-69
2021/04/05 07:26:42;;;;;;;;;;;;;;;14.50;46.24;101181.28;1693458;84;20273;-66
2021/04/05 07:29:46;;;;;;;;;;;;;;;14.29;46.16;101186.50;1661143;84;20268;-71
2021/04/05 07:33:10;;;;;;;;;;;;;;;14.09;46.84;101194.75;1671380;85;20278;-69
2021/04/05 07:36:06;;;;;;;;;;;;;;;13.91;46.51;101187.38;1696905;83;20253;-69
2021/04/05 07:39:03;;;;;;;;;;;;;;;13.84;46.89;101182.59;1712715;83;20309;-70
2021/04/05 07:41:56;;;;;;;;;;;;;;;13.78;45.37;101179.48;1693322;84;20574;-71
2021/04/05 07:44:58;;;;;;;;;;;;;;;13.63;45.59;101187.19;1690009;84;20187;-69
2021/04/05 07:47:54;;;;;;;;;;;;;;;13.49;45.43;101186.53;1695599;84;20262;-70
2021/04/05 07:50:36;;;;;;;;;;;;;;;13.38;45.72;101187.58;1654259;85;20249;-69
2021/04/05 07:53:30;;;;;;;;;;;;;;;13.35;46.55;101186.70;1677022;85;20230;-69
2021/04/05 07:56:06;;;;;;;;;;;;;;;13.37;47.34;101183.94;1664578;85;20541;-70
2021/04/05 07:59:14;;;;;;;;;;;;;;;13.41;46.38;101185.64;1672158;85;20550;-70
2021/04/05 08:04:54;;;;;;;;;;;;;;;13.26;45.03;101179.37;1669459;85;20493;-65
2021/04/05 08:07:38;;;;;;;;;;;;;;;13.19;45.98;101183.48;1671645;84;20186;-71
2021/04/05 08:10:33;;;;;;;;;;;;;;;13.17;45.15;101179.59;1690644;84;20312;-66
2021/04/05 08:13:45;;;;;;;;;;;;;;;13.12;45.56;101171.72;1693557;83;20220;-70
2021/04/05 08:16:27;;;;;;;;;;;;;;;13.11;45.21;101170.05;1673142;84;20263;-69
2021/04/05 08:19:24;;;;;;;;;;;;;;;13.05;45.47;101170.56;1692891;83;20950;-69
2021/04/05 08:22:36;;;;;;;;;;;;;;;13.03;44.82;101176.94;1695346;84;20299;-70
2021/04/05 08:28:42;;;;;;;;;;;;;;;12.81;44.87;101170.58;1680631;83;20242;-68
2021/04/05 08:31:31;;;;;;;;;;;;;;;12.80;43.61;101166.11;1659391;85;20186;-67
2021/04/05 08:34:40;;;;;;;;;;;;;;;12.70;44.77;101163.21;1678618;85;20282;-68
2021/04/05 08:37:36;;;;;;;;;;;;;;;12.69;44.17;101154.56;1671842;85;20587;-72
2021/04/05 08:40:25;;;;;;;;;;;;;;;12.69;42.15;101151.78;1670727;85;20268;-68
2021/04/05 08:43:13;;;;;;;;;;;;;;;12.61;42.34;101153.66;1691224;84;20262;-74
2021/04/05 08:45:48;;;;;;;;;;;;;;;12.57;42.93;101155.81;1661544;85;20258;-75
2021/04/05 08:48:21;;;;;;;;;;;;;;;12.55;42.28;101151.06;1668403;86;20614;-73
2021/04/05 08:50:57;;;;;;;;;;;;;;;12.55;43.06;101146.35;1688029;84;20499;-71
2021/04/05 08:53:33;;;;;;;;;;;;;;;12.58;43.83;101141.63;1689414;84;20336;-69
2021/04/05 08:56:09;;;;;;;;;;;;;;;12.66;42.00;101141.72;1648342;85;20306;-70
2021/04/05 08:58:55;;;;;;;;;;;;;;;12.69;40.90;101139.78;1659998;85;20267;-69
2021/04/05 09:01:54;;;;;;;;;;;;;;;12.72;39.26;101142.88;1656849;86;20330;-69
2021/04/05 09:04:29;;;;;;;;;;;;;;;12.68;40.80;101137.56;1647412;86;20239;-69
2021/04/05 09:07:23;;;;;;;;;;;;;;;12.61;41.67;101125.80;1651034;85;20293;-72
2021/04/05 09:09:59;;;;;;;;;;;;;;;12.56;43.84;101128.53;1650687;85;20273;-72
2021/04/05 09:12:38;;;;;;;;;;;;;;;12.51;43.73;101126.22;1663105;84;20226;-74
2021/04/05 09:15:19;;;;;;;;;;;;;;;12.49;44.46;101129.84;1687777;84;20222;-73
2021/04/05 09:18:31;;;;;;;;;;;;;;;12.47;43.79;101124.52;1656623;85;20193;-68
2021/04/05 09:21:17;;;;;;;;;;;;;;;12.44;43.18;101119.48;1640463;86;20333;-70
2021/04/05 09:24:10;;;;;;;;;;;;;;;12.36;43.63;101112.97;1693320;84;20302;-69
2021/04/05 09:27:21;;;;;;;;;;;;;;;12.29;44.71;101111.52;1676050;85;20185;-69
2021/04/05 09:30:30;;;;;;;;;;;;;;;12.27;45.16;101109.53;1669723;85;20253;-69
2021/04/05 09:33:42;;;;;;;;;;;;;;;12.19;45.44;101115.03;1671525;86;20182;-70
2021/04/05 09:37:11;;;;;;;;;;;;;;;12.10;45.74;101108.23;1667930;85;20181;-69
2021/04/05 09:39:45;;;;;;;;;;;;;;;12.10;45.72;101105.45;1658183;85;20191;-67
2021/04/05 09:42:24;;;;;;;;;;;;;;;12.22;45.35;101106.72;1671359;85;20222;-67
2021/04/05 09:45:18;;;;;;;;;;;;;;;12.27;46.00;101099.24;1655155;85;20264;-68
2021/04/05 09:48:15;;;;;;;;;;;;;;;12.38;45.33;101094.08;1686517;84;20297;-67
2021/04/05 09:51:17;;;;;;;;;;;;;;;12.48;45.09;101097.52;1692491;84;20264;-67
2021/04/05 09:54:07;;;;;;;;;;;;;;;12.59;44.10;101101.52;1685121;84;20326;-68
2021/04/05 09:56:47;;;;;;;;;;;;;;;12.60;44.04;101096.23;1684664;84;20299;-67
2021/04/05 09:59:21;;;;;;;;;;;;;;;12.62;43.66;101098.23;1681141;84;20594;-66
2021/04/05 10:01:53;;;;;;;;;;;;;;;12.61;42.78;101100.73;1685554;84;20191;-67
2021/04/05 10:04:25;;;;;;;;;;;;;;;12.57;43.19;101095.39;1685921;84;20259;-68
2021/04/05 10:06:58;;;;;;;;;;;;;;;12.57;43.61;101105.67;1681000;84;20330;-69
2021/04/05 10:09:31;;;;;;;;;;;;;;;12.59;43.78;101104.87;1679150;84;20356;-69
2021/04/05 10:12:05;;;;;;;;;;;;;;;12.63;43.58;101095.72;1677761;85;20297;-69
2021/04/05 10:14:41;;;;;;;;;;;;;;;12.75;43.77;101094.15;1681392;83;20258;-69
2021/04/05 10:17:14;;;;;;;;;;;;;;;12.92;44.12;101092.07;1649821;86;20300;-69
2021/04/05 10:19:52;;;;;;;;;;;;;;;13.06;42.94;101085.81;1648242;85;20306;-69
2021/04/05 10:22:24;;;;;;;;;;;;;;;13.18;42.04;101097.63;1688712;84;20618;-68
2021/04/05 10:24:59;;;;;;;;;;;;;;;13.29;41.70;101092.41;1672728;84;20241;-69
2021/04/05 10:27:33;;;;;;;;;;;;;;;13.41;41.00;101088.86;1692937;84;20281;-69
2021/04/05 10:30:07;;;;;;;;;;;;;;;13.58;40.27;101080.30;1698177;84;20695;-70
2021/04/05 10:32:41;;;;;;;;;;;;;;;13.71;39.49;101070.89;1673741;85;20306;-70
2021/04/05 10:35:15;;;;;;;;;;;;;;;13.85;39.39;101076.25;1667315;85;20195;-71
2021/04/05 10:37:47;;;;;;;;;;;;;;;14.00;39.39;101081.88;1694911;85;20309;-70
2021/04/05 10:40:20;;;;;;;;;;;;;;;14.09;39.24;101083.05;1695999;83;20614;-71
2021/04/05 10:42:55;;;;;;;;;;;;;;;14.09;39.95;101084.45;1690304;83;20341;-73
2021/04/05 10:45:27;;;;;;;;;;;;;;;14.12;39.77;101076.91;1705216;83;20357;-70
2021/04/05 10:48:08;;;;;;;;;;;;;;;14.18;38.71;101079.98;1701495;83;20222;-69
2021/04/05 10:50:59;;;;;;;;;;;;;;;14.24;37.48;101072.52;1685543;84;20505;-70
2021/04/05 10:53:34;;;;;;;;;;;;;;;14.27;37.22;101067.22;1705210;83;20361;-71
2021/04/05 10:56:10;;;;;;;;;;;;;;;14.32;37.52;101070.03;1665150;85;20190;-69
2021/04/05 10:58:51;;;;;;;;;;;;;;;14.36;37.29;101071.13;1690583;83;20258;-68
2021/04/05 11:01:24;;;;;;;;;;;;;;;14.35;37.73;101066.67;1685521;83;20603;-69
2021/04/05 11:03:56;;;;;;;;;;;;;;;14.33;37.32;101071.70;1673804;85;20273;-67
2021/04/05 11:06:29;;;;;;;;;;;;;;;14.31;37.68;101065.53;1668774;84;20270;-70
2021/04/05 11:09:04;;;;;;;;;;;;;;;14.32;37.24;101063.59;1649532;85;20294;-68
2021/04/05 11:11:40;;;;;;;;;;;;;;;14.32;37.15;101058.86;1675032;84;20344;-69
2021/04/05 11:14:16;;;;;;;;;;;;;;;14.29;37.25;101063.58;1704141;83;20341;-71
2021/04/05 11:16:53;;;;;;;;;;;;;;;14.26;37.03;101058.56;1669164;85;20230;-70
2021/04/05 11:19:37;;;;;;;;;;;;;;;14.23;37.06;101050.72;1668625;85;20264;-69
2021/04/05 11:22:14;;;;;;;;;;;;;;;14.26;36.92;101046.53;1666823;84;20253;-69
2021/04/05 11:24:46;;;;;;;;;;;;;;;14.29;35.72;101052.41;1686332;84;20343;-70
2021/04/05 11:27:19;;;;;;;;;;;;;;;14.25;35.52;101041.49;1690060;83;20264;-69
2021/04/05 11:29:50;;;;;;;;;;;;;;;14.22;35.89;101044.86;1665574;84;20230;-69
2021/04/05 11:32:24;;;;;;;;;;;;;;;14.20;35.81;101040.11;1689628;85;20308;-70
2021/04/05 11:35:00;;;;;;;;;;;;;;;14.21;35.61;101040.39;1690327;84;20247;-69
2021/04/05 11:37:37;;;;;;;;;;;;;;;14.19;34.36;101038.98;1689789;84;20513;-69
2021/04/05 11:40:13;;;;;;;;;;;;;;;14.16;34.59;101029.16;1687934;83;20293;-68
2021/04/05 11:42:47;;;;;;;;;;;;;;;14.21;34.48;101028.36;1691520;85;20266;-69
2021/04/05 11:45:29;;;;;;;;;;;;;;;14.27;34.51;101025.86;1691163;85;20198;-70
2021/04/05 11:48:03;;;;;;;;;;;;;;;14.28;34.62;101030.33;1688882;85;20265;-72
2021/04/05 11:50:35;;;;;;;;;;;;;;;14.24;34.71;101021.66;1679156;84;20590;-70
2021/04/05 11:53:07;;;;;;;;;;;;;;;14.19;35.02;101026.42;1669146;85;20539;-69
2021/04/05 11:55:40;;;;;;;;;;;;;;;14.18;34.75;101023.31;1661567;85;20324;-70
2021/04/05 11:58:29;;;;;;;;;;;;;;;14.13;34.65;101024.11;1687107;84;20301;-72
2021/04/05 12:01:04;;;;;;;;;;;;;;;14.13;34.50;101010.16;1695482;83;20245;-70
2021/04/05 12:03:46;;;;;;;;;;;;;;;14.09;34.17;101016.03;1672873;84;20224;-69
2021/04/05 12:06:23;;;;;;;;;;;;;;;13.99;34.05;101020.76;1683032;83;20549;-74
2021/04/05 12:09:00;;;;;;;;;;;;;;;13.86;34.74;101018.45;1658957;85;20258;-70
2021/04/05 12:11:34;;;;;;;;;;;;;;;13.80;35.01;101009.23;1665484;85;20343;-72
2021/04/05 12:14:11;;;;;;;;;;;;;;;13.78;34.65;101005.89;1677171;85;20652;-70
2021/04/05 12:16:46;;;;;;;;;;;;;;;13.77;34.79;101003.36;1669433;85;20274;-70
2021/04/05 12:19:22;;;;;;;;;;;;;;;13.77;35.15;101001.42;1658501;85;20571;-70
2021/04/05 12:21:53;;;;;;;;;;;;;;;13.77;34.79;101001.42;1680978;85;20260;-71
2021/04/05 12:24:28;;;;;;;;;;;;;;;13.78;34.41;100991.94;1685967;83;20182;-71
2021/04/05 12:27:06;;;;;;;;;;;;;;;13.71;33.97;100991.36;1688881;84;20190;-69
2021/04/05 12:29:40;;;;;;;;;;;;;;;13.67;34.39;100988.83;1689364;85;20194;-71
2021/04/05 12:32:18;;;;;;;;;;;;;;;13.67;34.39;100990.22;1695219;84;20601;-71
2021/04/05 12:34:53;;;;;;;;;;;;;;;13.68;34.56;100979.91;1679348;84;20330;-72
2021/04/05 12:37:26;;;;;;;;;;;;;;;13.69;35.12;100986.59;1689328;84;20188;-69
2021/04/05 12:40:02;;;;;;;;;;;;;;;13.71;35.49;100980.20;1685946;84;20267;-72
2021/04/05 12:42:36;;;;;;;;;;;;;;;13.77;35.29;100976.85;1681581;85;20297;-71
2021/04/05 12:45:11;;;;;;;;;;;;;;;13.79;35.05;100964.84;1683429;84;20191;-68
2021/04/05 12:47:44;;;;;;;;;;;;;;;13.77;35.17;100981.89;1710013;84;20211;-70
2021/04/05 12:50:16;;;;;;;;;;;;;;;13.75;35.06;100978.52;1710083;84;20220;-70
2021/04/05 12:52:50;;;;;;;;;;;;;;;13.75;35.12;100978.52;1688673;84;20551;-69
2021/04/05 12:55:23;;;;;;;;;;;;;;;13.75;34.66;100974.33;1678884;84;20356;-69
2021/04/05 12:57:58;;;;;;;;;;;;;;;13.69;35.18;100971.23;1681350;84;20256;-71
2021/04/05 13:00:29;;;;;;;;;;;;;;;13.66;35.56;100968.16;1681562;85;20294;-70
2021/04/05 13:03:03;;;;;;;;;;;;;;;13.64;35.68;100978.77;1656544;86;20276;-71
2021/04/05 13:05:43;;;;;;;;;;;;;;;13.65;35.66;100976.25;1681417;84;20270;-71
2021/04/05 13:08:53;;;;;;;;;;;;;;;13.68;35.72;100972.36;1657690;85;20199;-71
2021/04/05 13:11:35;;;;;;;;;;;;;;;13.71;35.81;100969.03;1671558;84;20205;-71
2021/04/05 13:14:14;;;;;;;;;;;;;;;13.75;35.75;100967.92;1660781;84;20694;-72
2021/04/05 13:16:58;;;;;;;;;;;;;;;13.77;35.76;100971.27;1664410;84;20232;-70
2021/04/05 13:19:50;;;;;;;;;;;;;;;13.78;35.62;100971.00;1669573;84;20260;-71
2021/04/05 13:22:25;;;;;;;;;;;;;;;13.79;35.43;100971.28;1661543;85;20193;-73
2021/04/05 13:25:04;;;;;;;;;;;;;;;13.81;35.06;100962.64;1652481;85;20261;-72
2021/04/05 13:27:39;;;;;;;;;;;;;;;13.82;35.08;100972.11;1672761;84;20255;-72
2021/04/05 13:30:21;;;;;;;;;;;;;;;13.84;35.41;100966.26;1661063;84;20546;-74
2021/04/05 13:32:52;;;;;;;;;;;;;;;13.88;35.01;100965.42;1678423;84;20182;-72
2021/04/05 13:35:26;;;;;;;;;;;;;;;13.89;34.75;100964.34;1670282;84;20315;-73
2021/04/05 13:38:05;;;;;;;;;;;;;;;13.92;35.39;100969.90;1680244;84;20262;-70
2021/04/05 13:40:37;;;;;;;;;;;;;;;13.95;34.95;100976.34;1661378;84;20256;-72
2021/04/05 13:43:20;;;;;;;;;;;;;;;13.96;34.84;100961.27;1661248;85;20246;-74
2021/04/05 13:45:53;;;;;;;;;;;;;;;13.93;34.86;100966.84;1675791;84;20256;-72
2021/04/05 13:48:27;;;;;;;;;;;;;;;13.91;35.10;100970.48;1683020;83;20198;-76
2021/04/05 13:50:59;;;;;;;;;;;;;;;13.86;35.22;100967.67;1648628;85;20573;-73
2021/04/05 13:53:34;;;;;;;;;;;;;;;13.80;35.60;100970.16;1622944;87;20259;-73
2021/04/05 13:56:07;;;;;;;;;;;;;;;13.74;36.54;100971.26;1651015;86;20270;-70
2021/04/05 13:58:43;;;;;;;;;;;;;;;13.69;37.14;100973.21;1661245;85;20218;-72
2021/04/05 14:01:16;;;;;;;;;;;;;;;13.67;37.36;100966.50;1674939;84;20269;-71
2021/04/05 14:03:52;;;;;;;;;;;;;;;13.60;37.12;100967.31;1675013;84;20256;-71
2021/04/05 14:06:43;;;;;;;;;;;;;;;13.49;37.12;100957.77;1660721;86;20615;-71
2021/04/05 14:09:17;;;;;;;;;;;;;;;13.38;37.42;100962.47;1674783;86;20193;-78
2021/04/05 14:11:54;;;;;;;;;;;;;;;13.32;37.78;100949.61;1675873;85;20259;-79
2021/04/05 14:14:28;;;;;;;;;;;;;;;13.29;37.96;100939.02;1657763;85;20210;-74
2021/04/05 14:17:07;;;;;;;;;;;;;;;13.28;37.70;100943.47;1661738;85;20218;-73
2021/04/05 14:20:04;;;;;;;;;;;;;;;13.27;37.88;100941.80;1654653;85;20267;-73
2021/04/05 14:22:38;;;;;;;;;;;;;;;13.25;38.02;100932.30;1661913;85;20252;-74
2021/04/05 14:25:25;;;;;;;;;;;;;;;13.22;38.09;100938.98;1682444;84;20285;-73
2021/04/05 14:28:02;;;;;;;;;;;;;;;13.15;38.29;100939.21;1689728;84;20291;-76
2021/04/05 14:30:42;;;;;;;;;;;;;;;13.08;38.37;100938.63;1685597;84;20351;-76
2021/04/05 14:33:22;;;;;;;;;;;;;;;13.02;38.68;100936.92;1685997;83;20293;-80
2021/04/05 14:35:57;;;;;;;;;;;;;;;12.97;38.71;100937.46;1663758;84;20341;-74
2021/04/05 14:38:30;;;;;;;;;;;;;;;12.90;38.74;100934.86;1690202;85;20285;-76
2021/04/05 14:41:14;;;;;;;;;;;;;;;12.85;39.23;100929.25;1689202;85;20262;-75
2021/04/05 14:43:50;;;;;;;;;;;;;;;12.84;39.51;100935.94;1676767;85;20297;-79
2021/04/05 14:46:23;;;;;;;;;;;;;;;12.82;39.83;100929.81;1702940;84;20249;-80
2021/04/05 14:48:55;;;;;;;;;;;;;;;12.79;40.28;100935.09;1705598;84;20245;-78
2021/04/05 14:51:28;;;;;;;;;;;;;;;12.75;40.67;100940.36;1701135;84;20588;-80
2021/04/05 14:54:03;;;;;;;;;;;;;;;12.74;42.75;100938.69;1693584;83;20326;-80
2021/04/05 14:56:36;;;;;;;;;;;;;;;12.68;43.80;100933.34;1695037;83;20291;-79
2021/04/05 14:59:08;;;;;;;;;;;;;;;12.64;44.28;100938.61;1688722;84;20221;-80
2021/04/05 15:01:42;;;;;;;;;;;;;;;12.59;44.65;100934.39;1695543;84;20194;-75
2021/04/05 15:04:17;;;;;;;;;;;;;;;12.56;45.11;100940.51;1692086;84;20222;-76
2021/04/05 15:06:59;;;;;;;;;;;;;;;12.52;45.85;100935.72;1669995;84;20264;-73
2021/04/05 15:09:32;;;;;;;;;;;;;;;12.49;46.59;100930.16;1698093;84;20295;-73
2021/04/05 15:12:06;;;;;;;;;;;;;;;12.49;47.55;100931.55;1666448;84;20632;-77
2021/04/05 15:14:45;;;;;;;;;;;;;;;12.45;47.94;100926.22;1696660;84;20294;-72
2021/04/05 15:17:20;;;;;;;;;;;;;;;12.42;48.24;100921.16;1692861;84;20257;-71
2021/04/05 15:20:04;;;;;;;;;;;;;;;12.39;48.21;100921.71;1697008;84;20355;-72
2021/04/05 15:22:35;;;;;;;;;;;;;;;12.36;48.38;100913.88;1697074;83;20272;-73
2021/04/05 15:25:08;;;;;;;;;;;;;;;12.29;48.43;100917.45;1694619;84;20272;-74
2021/04/05 15:27:41;;;;;;;;;;;;;;;12.23;48.54;100924.65;1697323;84;20649;-73
2021/04/05 15:30:18;;;;;;;;;;;;;;;12.17;48.83;100926.53;1692472;84;20313;-73
2021/04/05 15:32:53;;;;;;;;;;;;;;;12.14;48.97;100920.66;1699359;84;20651;-71
2021/04/05 15:35:34;;;;;;;;;;;;;;;12.11;48.79;100916.45;1677377;84;20235;-72
2021/04/05 15:38:07;;;;;;;;;;;;;;;12.05;48.96;100918.91;1626331;88;20268;-74
2021/04/05 15:40:44;;;;;;;;;;;;;;;11.98;48.94;100921.64;1619201;88;20195;-73
2021/04/05 15:43:20;;;;;;;;;;;;;;;11.90;48.92;100914.61;1668944;85;20191;-71
2021/04/05 15:45:54;;;;;;;;;;;;;;;11.84;48.91;100918.98;1664503;85;20328;-75
2021/04/05 15:48:38;;;;;;;;;;;;;;;11.71;49.31;100913.84;1654247;86;20201;-76
2021/04/05 15:51:35;;;;;;;;;;;;;;;11.61;49.98;100915.97;1663470;85;20208;-75
2021/04/05 15:54:15;;;;;;;;;;;;;;;11.54;50.84;100921.41;1650423;86;21113;-75
2021/04/05 15:57:01;;;;;;;;;;;;;;;11.45;51.51;100916.04;1668687;85;20326;-75
2021/04/05 15:59:32;;;;;;;;;;;;;;;11.38;51.97;100918.19;1627827;88;20189;-73
2021/04/05 16:02:04;;;;;;;;;;;;;;;11.34;52.30;100909.53;1645408;85;20605;-76
2021/04/05 16:05:13;;;;;;;;;;;;;;;11.33;52.72;100916.20;1627731;86;20245;-76
2021/04/05 16:07:54;;;;;;;;;;;;;;;11.32;53.02;100911.71;1637126;86;20189;-73
2021/04/05 16:10:31;;;;;;;;;;;;;;;11.24;53.54;100904.38;1649170;85;20318;-74
2021/04/05 16:13:14;;;;;;;;;;;;;;;11.41;64.45;100911.55;1660314;86;20642;-71
2021/04/05 16:15:46;;;;;;;;;;;;;;;11.79;60.36;100903.09;1630531;87;20210;-72
2021/04/05 16:18:35;;;;;;;;;;;;;;;11.86;58.48;100905.67;1658310;86;20185;-72
2021/04/05 16:21:13;;;;;;;;;;;;;;;12.00;61.05;100896.62;1626403;87;20555;-74
2021/04/05 16:23:56;;;;;;;;;;;;;;;12.35;61.89;100895.50;1633097;87;20187;-76
2021/04/05 16:26:29;;;;;;;;;;;;;;;12.60;60.81;100899.03;1658983;85;20259;-76
2021/04/05 16:29:16;;;;;;;;;;;;;;;12.69;56.68;100891.28;1665526;85;20603;-73
2021/04/05 16:31:48;;;;;;;;;;;;;;;12.52;55.19;100896.18;1629462;87;20227;-72
2021/04/05 16:34:24;;;;;;;;;;;;;;;12.23;54.44;100892.06;1674088;84;20624;-76
2021/04/05 16:37:05;;;;;;;;;;;;;;;11.98;54.33;100897.42;1668646;85;20232;-69
2021/04/05 16:39:40;;;;;;;;;;;;;;;11.79;53.81;100889.75;1672401;84;20284;-74
2021/04/05 16:42:16;;;;;;;;;;;;;;;11.59;53.94;100886.74;1667992;85;20239;-75
2021/04/05 16:44:49;;;;;;;;;;;;;;;11.49;54.03;100895.78;1699665;83;20308;-75
2021/04/05 16:47:30;;;;;;;;;;;;;;;11.42;54.13;100904.03;1672702;85;20223;-73
2021/04/05 16:50:08;;;;;;;;;;;;;;;11.31;54.07;100897.52;1660592;86;20236;-74
2021/04/05 16:52:39;;;;;;;;;;;;;;;11.18;54.42;100891.55;1685119;85;20603;-74
2021/04/05 16:55:19;;;;;;;;;;;;;;;11.05;54.92;100890.53;1699411;83;20241;-75
2021/04/05 16:58:02;;;;;;;;;;;;;;;10.96;55.82;100895.70;1698886;83;20295;-74
2021/04/05 17:00:36;;;;;;;;;;;;;;;10.84;56.53;100891.37;1701797;83;20270;-75
2021/04/05 17:03:23;;;;;;;;;;;;;;;10.74;57.24;100896.25;1696271;83;20259;-76
2021/04/05 17:05:57;;;;;;;;;;;;;;;10.66;58.18;100894.45;1699391;83;20600;-73
2021/04/05 17:08:33;;;;;;;;;;;;;;;10.61;58.75;100902.17;1673183;84;20204;-74
2021/04/05 17:11:16;;;;;;;;;;;;;;;10.54;59.49;100891.80;1670827;85;20221;-74
2021/04/05 17:13:52;;;;;;;;;;;;;;;10.47;60.13;100895.84;1665352;85;20226;-74
2021/04/05 17:16:35;;;;;;;;;;;;;;;10.41;60.63;100903.23;1683996;84;20184;-74
2021/04/05 17:19:07;;;;;;;;;;;;;;;10.31;61.04;100894.77;1684821;84;20231;-74
2021/04/05 17:21:40;;;;;;;;;;;;;;;10.24;61.87;100909.38;1659545;84;20275;-75
2021/04/05 17:24:13;;;;;;;;;;;;;;;10.21;62.12;100909.86;1685319;84;20188;-73
2021/04/05 17:26:45;;;;;;;;;;;;;;;10.21;62.42;100909.86;1690858;84;20193;-75
2021/04/05 17:29:22;;;;;;;;;;;;;;;10.19;62.69;100909.29;1662142;84;20237;-73
2021/04/05 17:31:56;;;;;;;;;;;;;;;10.20;63.02;100907.33;1701755;83;20203;-73
2021/04/05 17:34:29;;;;;;;;;;;;;;;10.16;63.55;100908.95;1701073;84;20232;-72
2021/04/05 17:37:05;;;;;;;;;;;;;;;10.13;63.74;100909.44;1691972;83;20260;-75
2021/04/05 17:39:39;;;;;;;;;;;;;;;10.11;65.74;100912.49;1686497;84;20283;-75
2021/04/05 17:42:37;;;;;;;;;;;;;;;10.14;65.09;100911.12;1673570;84;20183;-75
2021/04/05 17:45:10;;;;;;;;;;;;;;;10.14;65.11;100913.89;1660872;86;20617;-76
2021/04/05 17:48:15;;;;;;;;;;;;;;;10.10;65.15;100914.95;1658450;86;20185;-74
2021/04/05 17:50:50;;;;;;;;;;;;;;;10.14;65.85;100914.75;1667418;85;20293;-76
2021/04/05 17:56:33;;;;;;;;;;;;;;;10.15;65.72;100913.65;1670852;84;20346;-75
2021/04/05 17:59:23;;;;;;;;;;;;;;;10.12;65.54;100911.39;1634524;84;20205;-76
2021/04/05 18:02:32;;;;;;;;;;;;;;;10.11;65.49;100914.41;1670866;85;20204;-74
2021/04/05 18:05:07;;;;;;;;;;;;;;;10.10;65.47;100911.35;1673706;85;20226;-74
2021/04/05 18:08:00;;;;;;;;;;;;;;;10.14;65.48;100918.05;1666373;85;20243;-73
2021/04/05 18:10:55;;;;;;;;;;;;;;;10.05;65.32;100924.59;1648595;86;20293;-72
2021/04/05 18:13:48;;;;;;;;;;;;;;;10.00;65.96;100913.91;1660370;86;20235;-73
2021/04/05 18:16:39;;;;;;;;;;;;;;;9.98;65.83;100923.04;1651675;85;20196;-75
2021/04/05 18:19:26;;;;;;;;;;;;;;;9.92;66.04;100913.77;1679617;84;20195;-72
2021/04/05 18:22:21;;;;;;;;;;;;;;;9.92;65.90;100915.16;1691796;84;20274;-73
2021/04/05 18:25:05;;;;;;;;;;;;;;;9.87;65.79;100906.77;1681076;84;20255;-70